Time;durP1;ratioP1;P1;durP2;ratioP2;P2;SDS_P1;SDS_P2;PMS_P1;PMS_P2;Temp;Humidity;BMP_temperature;BMP_pressure;BME280_temperature;BME280_humidity;BME280_pressure;Samples;Min_cycle;Max_cycle;Signal;HPM_P1;HPM_P2
2023/12/02 00:02:04;;;;;;;33.47;19.63;;;;;;;6.20;62.07;97335.38;8386752;23;20178;-79
2023/12/02 00:05:25;;;;;;;29.90;20.90;;;;;;;6.46;61.26;97342.44;8374540;23;20192;-79
2023/12/02 00:08:47;;;;;;;29.37;19.67;;;;;;;6.45;61.17;97356.88;8373902;23;20215;-79
2023/12/02 00:12:08;;;;;;;25.87;17.23;;;;;;;6.46;60.81;97345.13;8374293;23;20232;-80
2023/12/02 00:15:31;;;;;;;26.47;18.90;;;;;;;6.48;60.86;97337.72;8373836;23;20237;-79
2023/12/02 00:18:52;;;;;;;26.67;18.70;;;;;;;6.50;60.52;97330.28;8386836;23;20315;-80
2023/12/02 00:22:14;;;;;;;31.47;20.03;;;;;;;6.72;59.87;97342.28;8376060;23;20214;-80
2023/12/02 00:25:36;;;;;;;26.80;17.67;;;;;;;6.64;59.83;97348.72;8389462;23;20187;-79
2023/12/02 00:28:57;;;;;;;26.30;18.50;;;;;;;6.50;59.96;97349.84;8373403;23;20228;-79
2023/12/02 00:32:20;;;;;;;30.57;19.53;;;;;;;6.49;60.98;97364.25;8374269;23;20209;-79
2023/12/02 00:35:42;;;;;;;30.73;20.47;;;;;;;7.15;59.39;97362.78;8374532;23;20186;-79
2023/12/02 00:39:03;;;;;;;30.30;19.43;;;;;;;6.95;59.27;97358.63;8372777;23;20257;-79
2023/12/02 00:42:25;;;;;;;27.53;19.00;;;;;;;6.95;59.36;97362.09;8372445;23;20264;-79
2023/12/02 00:45:46;;;;;;;30.37;18.70;;;;;;;6.68;59.61;97373.22;8372670;23;20213;-79
2023/12/02 00:49:09;;;;;;;31.50;18.47;;;;;;;6.64;59.79;97385.38;8371691;23;20206;-79
2023/12/02 00:52:31;;;;;;;29.33;18.27;;;;;;;6.21;61.13;97379.00;8372154;23;20507;-79
2023/12/02 00:55:52;;;;;;;27.77;18.57;;;;;;;6.23;60.92;97374.25;8372047;23;20186;-79
2023/12/02 00:59:14;;;;;;;29.27;19.80;;;;;;;6.17;59.58;97337.66;8371144;23;20676;-79
2023/12/02 01:02:35;;;;;;;24.83;16.50;;;;;;;6.12;59.53;97374.91;8372640;23;20216;-79
2023/12/02 01:05:58;;;;;;;23.90;17.07;;;;;;;6.13;59.64;97365.88;8369850;23;20267;-79
2023/12/02 01:09:19;;;;;;;20.83;15.57;;;;;;;6.18;59.50;97379.44;8382032;23;20717;-78
2023/12/02 01:12:41;;;;;;;22.23;16.83;;;;;;;6.47;58.67;97382.38;8371608;23;20240;-79
2023/12/02 01:16:02;;;;;;;23.97;15.90;;;;;;;5.49;59.81;97349.78;8372768;23;20186;-78
2023/12/02 01:19:24;;;;;;;26.37;17.47;;;;;;;6.26;58.84;97331.03;8370700;23;20232;-79
2023/12/02 01:22:47;;;;;;;23.57;16.17;;;;;;;6.47;58.71;97369.00;8373418;23;20263;-80
2023/12/02 01:26:08;;;;;;;23.00;17.10;;;;;;;6.09;59.30;97370.00;8373541;23;20807;-79
2023/12/02 01:29:30;;;;;;;25.77;18.47;;;;;;;6.27;58.81;97354.06;8372792;23;20259;-79
2023/12/02 01:32:51;;;;;;;28.90;18.73;;;;;;;6.53;58.84;97389.56;8373016;23;20190;-79
2023/12/02 01:36:15;;;;;;;29.67;18.20;;;;;;;6.48;58.75;97384.03;8373296;23;20189;-79
2023/12/02 01:39:37;;;;;;;31.53;19.63;;;;;;;6.49;58.44;97391.00;8371662;23;20230;-79
2023/12/02 01:42:59;;;;;;;27.20;19.00;;;;;;;6.36;58.68;97409.81;8373280;23;20607;-79
2023/12/02 01:46:20;;;;;;;27.93;18.33;;;;;;;5.82;59.10;97417.41;8372418;23;20266;-79
2023/12/02 01:49:43;;;;;;;30.70;19.50;;;;;;;6.15;59.12;97398.59;8372283;23;20669;-80
2023/12/02 01:53:04;;;;;;;30.83;18.80;;;;;;;5.79;59.19;97398.25;8373069;23;20575;-79
2023/12/02 01:56:27;;;;;;;29.87;19.33;;;;;;;5.82;59.71;97401.34;8368735;23;20191;-78
2023/12/02 01:59:54;;;;;;;28.33;19.73;;;;;;;5.95;59.74;97401.31;8362752;23;20248;-77
2023/12/02 02:03:15;;;;;;;30.93;20.40;;;;;;;5.93;59.27;97389.19;8363696;23;20179;-77
2023/12/02 02:06:37;;;;;;;30.07;19.03;;;;;;;5.83;59.57;97408.34;8363117;23;20186;-78
2023/12/02 02:09:58;;;;;;;29.57;18.83;;;;;;;6.15;59.14;97407.44;8362889;23;20247;-77
2023/12/02 02:13:21;;;;;;;35.20;20.97;;;;;;;6.17;58.98;97420.59;8363096;23;20186;-78
2023/12/02 02:16:43;;;;;;;32.37;20.77;;;;;;;6.29;58.69;97422.41;8363562;23;20214;-78
2023/12/02 02:20:05;;;;;;;33.50;22.50;;;;;;;6.08;58.93;97395.91;8362066;23;20289;-78
2023/12/02 02:23:28;;;;;;;32.77;21.27;;;;;;;6.32;58.83;97416.63;8363591;23;20170;-78
2023/12/02 02:26:50;;;;;;;31.00;20.53;;;;;;;6.06;58.61;97414.03;8362876;23;20268;-77
2023/12/02 02:30:12;;;;;;;32.10;21.37;;;;;;;5.97;58.78;97417.16;8363049;23;20307;-78
2023/12/02 02:33:34;;;;;;;33.20;20.10;;;;;;;6.13;58.57;97414.03;8362828;23;20260;-78
2023/12/02 02:36:55;;;;;;;29.17;18.93;;;;;;;5.91;58.50;97421.50;8363509;23;20182;-78
2023/12/02 02:40:19;;;;;;;32.87;20.50;;;;;;;5.81;58.78;97423.78;8363738;23;20336;-77
2023/12/02 02:43:40;;;;;;;33.47;20.00;;;;;;;5.96;58.80;97427.03;8363131;23;20791;-77
2023/12/02 02:47:02;;;;;;;35.83;20.90;;;;;;;6.20;58.67;97437.03;8363187;23;20275;-78
2023/12/02 02:50:23;;;;;;;33.00;20.60;;;;;;;5.88;58.54;97432.63;8362896;23;20732;-77
2023/12/02 02:53:44;;;;;;;37.90;21.40;;;;;;;6.15;58.54;97438.72;8363168;23;20271;-77
2023/12/02 02:57:07;;;;;;;33.77;21.53;;;;;;;6.39;57.94;97444.19;8375764;23;20202;-77
2023/12/02 03:00:29;;;;;;;33.07;20.97;;;;;;;6.00;58.57;97444.31;8362473;23;20302;-77
2023/12/02 03:03:50;;;;;;;33.57;21.80;;;;;;;5.55;58.73;97431.78;8362528;23;20255;-77
2023/12/02 03:07:12;;;;;;;31.37;19.17;;;;;;;5.63;58.92;97438.78;8363045;23;20711;-77
2023/12/02 03:10:34;;;;;;;34.07;22.07;;;;;;;5.54;59.01;97445.38;8362533;23;20240;-78
2023/12/02 03:13:57;;;;;;;31.87;20.60;;;;;;;5.78;59.54;97440.19;8362671;23;20630;-77
2023/12/02 03:17:19;;;;;;;35.73;22.03;;;;;;;6.04;58.83;97437.53;8362200;23;20316;-77
2023/12/02 03:20:40;;;;;;;31.80;19.77;;;;;;;5.40;59.45;97435.72;8361565;23;20213;-77
2023/12/02 03:24:02;;;;;;;33.03;21.10;;;;;;;5.41;60.00;97434.69;8362472;23;20630;-78
2023/12/02 03:27:23;;;;;;;30.73;20.87;;;;;;;5.57;59.94;97437.78;8360788;23;20316;-78
2023/12/02 03:30:46;;;;;;;37.40;22.30;;;;;;;5.00;60.81;97439.38;8362528;23;20228;-77
2023/12/02 03:34:08;;;;;;;36.17;20.70;;;;;;;5.19;60.18;97458.09;8363046;23;20230;-78
2023/12/02 03:37:29;;;;;;;32.20;20.10;;;;;;;5.54;60.33;97451.53;8364258;23;20195;-78
2023/12/02 03:40:51;;;;;;;29.40;19.03;;;;;;;5.47;59.13;97456.06;8363776;23;20336;-78
2023/12/02 03:44:12;;;;;;;31.90;20.17;;;;;;;5.46;60.16;97453.59;8364562;23;20712;-79
2023/12/02 03:47:35;;;;;;;31.63;19.90;;;;;;;5.61;59.99;97457.69;8364964;23;20193;-76
2023/12/02 03:50:59;;;;;;;28.63;18.60;;;;;;;5.55;60.27;97453.19;8362041;23;20214;-76
2023/12/02 03:54:21;;;;;;;31.60;19.67;;;;;;;5.56;59.44;97451.34;8363746;23;20248;-77
2023/12/02 03:57:42;;;;;;;30.20;18.87;;;;;;;5.74;59.79;97452.38;8361486;23;20324;-78
2023/12/02 04:01:04;;;;;;;31.70;20.80;;;;;;;5.46;60.63;97458.94;8362964;23;20685;-77
2023/12/02 04:04:27;;;;;;;31.90;20.53;;;;;;;5.84;59.60;97460.78;8363500;23;20324;-77
2023/12/02 04:07:49;;;;;;;36.63;21.27;;;;;;;5.79;59.85;97475.81;8363127;23;20239;-77
2023/12/02 04:11:10;;;;;;;32.73;20.43;;;;;;;5.40;60.67;97487.31;8361502;23;20689;-77
2023/12/02 04:14:32;;;;;;;34.27;21.33;;;;;;;5.04;61.29;97484.19;8362217;23;20265;-77
2023/12/02 04:17:53;;;;;;;35.07;21.60;;;;;;;5.14;61.32;97470.44;8362568;23;20703;-77
2023/12/02 04:21:16;;;;;;;35.00;20.97;;;;;;;5.38;60.75;97494.72;8363057;23;20309;-77
2023/12/02 04:24:37;;;;;;;32.80;21.27;;;;;;;5.14;60.65;97497.97;8375813;23;20719;-77
2023/12/02 04:27:59;;;;;;;33.93;20.97;;;;;;;5.69;60.87;97527.03;8362329;23;20280;-77
2023/12/02 04:31:21;;;;;;;34.07;21.13;;;;;;;5.77;60.09;97521.47;8362563;23;20275;-76
2023/12/02 04:34:42;;;;;;;38.43;22.37;;;;;;;5.95;60.08;97535.06;8363252;23;20269;-77
2023/12/02 04:38:05;;;;;;;40.40;21.70;;;;;;;5.80;60.15;97539.81;8361408;23;20190;-77
2023/12/02 04:41:27;;;;;;;38.63;22.17;;;;;;;5.82;60.20;97543.09;8363057;23;20206;-79
2023/12/02 04:44:48;;;;;;;43.57;23.43;;;;;;;5.40;61.17;97530.09;8362935;23;20265;-78
2023/12/02 04:48:11;;;;;;;32.03;20.10;;;;;;;5.23;61.34;97552.88;8361456;23;20284;-77
2023/12/02 04:51:33;;;;;;;39.03;21.80;;;;;;;5.77;61.02;97547.38;8362207;23;20202;-77
2023/12/02 04:54:56;;;;;;;32.97;20.63;;;;;;;5.90;60.36;97550.09;8364273;23;20213;-77
2023/12/02 04:58:17;;;;;;;37.00;22.10;;;;;;;5.96;60.70;97555.41;8363003;23;20324;-77
2023/12/02 05:01:39;;;;;;;36.70;21.93;;;;;;;5.82;60.58;97563.66;8363027;23;20238;-76
2023/12/02 05:05:00;;;;;;;39.73;20.80;;;;;;;5.80;60.13;97571.06;8361821;23;20182;-78
2023/12/02 05:08:22;;;;;;;42.00;22.13;;;;;;;5.71;60.47;97575.75;8362615;23;20284;-77
2023/12/02 05:11:44;;;;;;;38.17;22.37;;;;;;;5.81;60.85;97570.88;8361648;23;20334;-77
2023/12/02 05:15:09;;;;;;;35.97;22.97;;;;;;;5.51;61.09;97571.41;8363390;23;20257;-77
2023/12/02 05:18:30;;;;;;;40.20;24.23;;;;;;;5.77;61.05;97566.09;8362048;23;20201;-77
2023/12/02 05:21:51;;;;;;;33.43;21.40;;;;;;;5.32;61.43;97565.00;8362029;23;20288;-77
2023/12/02 05:25:13;;;;;;;34.17;21.07;;;;;;;5.34;61.68;97562.13;8363816;23;20253;-77
2023/12/02 05:28:36;;;;;;;37.13;22.77;;;;;;;5.44;61.90;97575.94;8362114;23;20238;-77
2023/12/02 05:31:58;;;;;;;34.13;21.13;;;;;;;5.20;61.44;97579.97;8362971;23;20185;-77
2023/12/02 05:35:21;;;;;;;30.27;20.10;;;;;;;5.51;61.47;97571.41;8361890;23;20323;-77
2023/12/02 05:38:43;;;;;;;31.77;20.13;;;;;;;5.63;61.25;97562.59;8360563;23;20214;-79
2023/12/02 05:42:04;;;;;;;30.67;19.33;;;;;;;5.54;61.22;97589.72;8363061;23;20179;-77
2023/12/02 05:45:27;;;;;;;28.70;18.47;;;;;;;5.55;60.62;97602.06;8362726;23;20668;-77
2023/12/02 05:48:49;;;;;;;23.03;14.77;;;;;;;5.23;62.03;97611.63;8361378;23;20234;-77
2023/12/02 05:52:10;;;;;;;22.30;15.43;;;;;;;5.16;61.09;97620.66;8362402;23;20714;-77
2023/12/02 05:55:32;;;;;;;26.90;18.00;;;;;;;5.41;61.27;97627.94;8362128;23;20279;-77
2023/12/02 05:58:53;;;;;;;25.23;17.30;;;;;;;5.35;61.43;97628.72;8359261;23;20291;-77
2023/12/02 06:02:16;;;;;;;22.93;15.87;;;;;;;5.22;61.09;97633.19;8362339;23;20198;-77
2023/12/02 06:05:37;;;;;;;25.80;17.17;;;;;;;5.23;61.41;97632.19;8362602;23;20606;-78
2023/12/02 06:09:00;;;;;;;22.77;15.67;;;;;;;5.57;60.50;97638.25;8361749;23;20228;-77
2023/12/02 06:12:21;;;;;;;22.27;15.07;;;;;;;5.28;61.14;97627.06;8361460;23;20190;-77
2023/12/02 06:15:43;;;;;;;24.27;16.93;;;;;;;5.49;60.88;97643.78;8361730;23;20280;-76
2023/12/02 06:19:06;;;;;;;22.83;15.23;;;;;;;5.41;60.38;97641.28;8361849;23;20238;-77
2023/12/02 06:22:27;;;;;;;23.43;16.33;;;;;;;5.44;60.96;97654.28;8362882;23;20181;-77
2023/12/02 06:25:49;;;;;;;21.93;15.30;;;;;;;5.20;61.23;97646.75;8375704;23;20199;-78
2023/12/02 06:29:11;;;;;;;26.80;16.03;;;;;;;5.13;61.34;97637.09;8361475;23;20280;-77
2023/12/02 06:32:33;;;;;;;22.43;15.80;;;;;;;5.31;61.46;97651.53;8361178;23;20657;-78
2023/12/02 06:35:56;;;;;;;22.53;16.73;;;;;;;5.50;60.84;97655.31;8362834;23;20224;-77
2023/12/02 06:39:17;;;;;;;25.73;17.17;;;;;;;5.54;60.95;97662.72;8371842;23;20225;-76
2023/12/02 06:42:39;;;;;;;22.90;16.10;;;;;;;5.36;61.19;97665.13;8361670;23;20626;-76
2023/12/02 06:46:01;;;;;;;20.83;15.70;;;;;;;5.40;61.15;97654.84;8362613;23;20268;-78
2023/12/02 06:49:22;;;;;;;21.87;15.30;;;;;;;5.12;61.19;97673.66;8362219;23;20206;-77
2023/12/02 06:52:46;;;;;;;25.17;16.00;;;;;;;5.51;60.69;97670.31;8362596;23;20324;-77
2023/12/02 06:56:17;;;;;;;20.60;14.67;;;;;;;5.14;60.43;97676.13;8361998;23;20188;-77
2023/12/02 06:59:38;;;;;;;25.03;16.17;;;;;;;5.31;61.17;97680.91;8360507;23;20271;-76
2023/12/02 07:03:00;;;;;;;21.87;15.00;;;;;;;5.40;60.34;97694.94;8363046;23;20271;-74
2023/12/02 07:06:21;;;;;;;19.97;15.40;;;;;;;5.22;60.71;97698.16;8362266;23;20186;-76
2023/12/02 07:09:45;;;;;;;18.83;13.73;;;;;;;5.49;59.84;97707.91;8361292;23;20201;-75
2023/12/02 07:13:06;;;;;;;22.50;14.87;;;;;;;5.31;60.62;97706.84;8361823;23;20189;-75
2023/12/02 07:16:28;;;;;;;25.33;17.10;;;;;;;5.24;60.58;97717.47;8360911;23;20620;-75
2023/12/02 07:19:49;;;;;;;23.23;16.00;;;;;;;5.32;60.26;97729.84;8360889;23;20294;-77
2023/12/02 07:23:11;;;;;;;25.30;17.00;;;;;;;4.99;60.84;97731.50;8362606;23;20210;-75
2023/12/02 07:26:35;;;;;;;24.93;17.37;;;;;;;5.07;60.88;97740.19;8362687;23;20320;-75
2023/12/02 07:29:57;;;;;;;25.27;16.63;;;;;;;4.90;60.46;97740.72;8361440;23;20522;-76
2023/12/02 07:33:19;;;;;;;29.83;18.40;;;;;;;4.98;60.59;97743.22;8358970;23;20263;-76
2023/12/02 07:36:41;;;;;;;25.57;16.93;;;;;;;4.40;60.99;97757.78;8361836;23;20187;-74
2023/12/02 07:40:03;;;;;;;26.20;17.90;;;;;;;4.40;61.52;97756.94;8360154;23;20722;-75
2023/12/02 07:43:26;;;;;;;24.87;17.33;;;;;;;4.22;62.35;97757.41;8361426;23;20624;-73
2023/12/02 07:46:47;;;;;;;25.43;17.60;;;;;;;4.69;61.66;97772.78;8362250;23;20263;-74
2023/12/02 07:50:09;;;;;;;23.97;16.40;;;;;;;4.53;61.41;97776.56;8359152;23;20328;-74
2023/12/02 07:53:31;;;;;;;25.10;16.10;;;;;;;4.30;61.23;97778.59;8362058;23;20210;-74
2023/12/02 07:56:52;;;;;;;25.20;17.20;;;;;;;4.46;61.16;97783.69;8360644;23;20748;-76
2023/12/02 08:00:16;;;;;;;26.27;17.27;;;;;;;4.51;60.46;97794.63;8359933;23;20296;-74
2023/12/02 08:03:38;;;;;;;23.83;16.47;;;;;;;4.53;61.28;97789.91;8361756;23;20653;-74
2023/12/02 08:06:59;;;;;;;36.60;23.63;;;;;;;4.96;60.31;97807.50;8360062;23;20696;-75
2023/12/02 08:10:21;;;;;;;40.17;23.93;;;;;;;4.93;60.17;97812.41;8360041;23;20235;-74
2023/12/02 08:13:44;;;;;;;24.03;16.47;;;;;;;4.87;59.68;97816.69;8361212;23;20217;-75
2023/12/02 08:17:07;;;;;;;24.43;16.67;;;;;;;4.98;59.23;97820.66;8363037;23;20193;-74
2023/12/02 08:20:29;;;;;;;26.17;18.23;;;;;;;4.77;60.14;97823.38;8362945;23;20534;-76
2023/12/02 08:23:50;;;;;;;24.00;16.47;;;;;;;4.99;59.11;97828.50;8363415;23;20186;-75
2023/12/02 08:27:12;;;;;;;22.37;16.43;;;;;;;4.25;59.43;97775.69;8362118;23;20388;-74
2023/12/02 08:30:33;;;;;;;24.83;16.60;;;;;;;4.69;59.30;97839.53;8361482;23;20340;-74
2023/12/02 08:33:56;;;;;;;25.23;16.70;;;;;;;4.74;58.94;97847.78;8363864;23;20269;-75
2023/12/02 08:37:18;;;;;;;21.70;14.47;;;;;;;4.44;58.77;97856.94;8361572;23;20509;-75
2023/12/02 08:40:40;;;;;;;21.47;15.47;;;;;;;4.40;59.83;97863.66;8360140;23;20205;-74
2023/12/02 08:44:01;;;;;;;22.80;15.00;;;;;;;4.52;59.89;97871.00;8361280;23;20189;-74
2023/12/02 08:47:23;;;;;;;19.97;13.70;;;;;;;4.57;60.13;97875.75;8363007;23;20248;-75
2023/12/02 08:50:45;;;;;;;22.30;15.70;;;;;;;4.91;59.21;97870.53;8362138;23;20748;-75
2023/12/02 08:54:07;;;;;;;28.20;17.87;;;;;;;4.64;59.34;97876.63;8362626;23;20236;-74
2023/12/02 08:57:28;;;;;;;26.60;16.90;;;;;;;4.90;58.89;97887.59;8362789;23;20638;-74
2023/12/02 09:00:50;;;;;;;24.10;16.73;;;;;;;4.82;58.88;97895.69;8361105;23;20288;-75
2023/12/02 09:04:11;;;;;;;21.83;15.40;;;;;;;4.63;58.91;97891.84;8362422;23;20516;-74
2023/12/02 09:07:34;;;;;;;24.47;15.73;;;;;;;4.49;59.80;97903.38;8362980;23;20505;-74
2023/12/02 09:10:56;;;;;;;23.73;15.43;;;;;;;4.56;60.11;97906.97;8362081;23;20269;-75
2023/12/02 09:14:18;;;;;;;27.63;17.23;;;;;;;4.59;59.48;97917.25;8363148;23;20298;-74
2023/12/02 09:18:07;;;;;;;24.87;15.37;;;;;;;4.62;58.85;97921.38;8361801;23;20264;-74
2023/12/02 09:21:43;;;;;;;23.10;15.60;;;;;;;4.71;58.19;97938.97;8361447;23;20205;-76
2023/12/02 09:25:06;;;;;;;24.47;15.67;;;;;;;4.61;58.93;97901.88;8363179;23;20241;-75
2023/12/02 09:28:29;;;;;;;25.30;16.37;;;;;;;4.68;59.18;97944.66;8362266;23;20604;-75
2023/12/02 09:31:50;;;;;;;24.43;16.10;;;;;;;4.58;58.88;97944.97;8363501;23;20182;-76
2023/12/02 09:35:12;;;;;;;18.87;14.60;;;;;;;4.52;59.46;97955.56;8362522;23;20293;-74
2023/12/02 09:38:35;;;;;;;21.03;14.23;;;;;;;4.66;58.71;97960.03;8359872;23;20221;-76
2023/12/02 09:41:59;;;;;;;25.70;16.83;;;;;;;4.76;59.13;97963.22;8361105;23;20208;-75
2023/12/02 09:45:22;;;;;;;22.70;15.87;;;;;;;4.60;59.37;97966.94;8361605;23;20654;-74
2023/12/02 09:48:50;;;;;;;22.73;15.30;;;;;;;4.39;59.83;97958.91;8362569;23;20682;-74
2023/12/02 09:52:45;;;;;;;19.07;13.43;;;;;;;4.21;60.33;97968.31;8363594;23;20617;-75
2023/12/02 09:56:14;;;;;;;22.03;14.83;;;;;;;4.67;60.50;97967.03;8362378;23;20203;-74
2023/12/02 09:59:55;;;;;;;19.27;13.40;;;;;;;5.36;59.54;97963.63;8374685;23;20199;-76
2023/12/02 10:03:29;;;;;;;23.37;14.63;;;;;;;5.53;57.77;97968.47;8362436;23;20293;-78
2023/12/02 10:06:52;;;;;;;36.37;17.93;;;;;;;5.53;59.54;97967.66;8364016;23;20228;-78
2023/12/02 10:10:19;;;;;;;26.17;17.03;;;;;;;5.69;58.09;97962.00;8375322;23;20202;-78
2023/12/02 10:13:45;;;;;;;23.63;13.83;;;;;;;5.70;57.47;97977.88;8362870;23;20211;-75
2023/12/02 10:17:09;;;;;;;24.47;15.43;;;;;;;5.75;57.02;97971.94;8365822;23;20496;-77
2023/12/02 10:20:35;;;;;;;21.77;14.80;;;;;;;6.03;57.01;97983.47;8362273;23;20212;-75
2023/12/02 10:23:58;;;;;;;19.03;14.23;;;;;;;6.16;56.76;97986.22;8365806;23;20233;-75
2023/12/02 10:27:20;;;;;;;23.23;14.13;;;;;;;6.20;56.65;97988.31;8365564;23;20666;-75
2023/12/02 10:30:46;;;;;;;25.23;15.67;;;;;;;6.26;56.09;97982.16;8366114;23;20272;-78
2023/12/02 10:34:13;;;;;;;19.23;13.67;;;;;;;5.88;56.90;97985.41;8375100;23;20168;-79
2023/12/02 10:37:38;;;;;;;24.00;16.40;;;;;;;6.07;57.18;97982.88;8364336;23;20241;-77
2023/12/02 10:41:07;;;;;;;19.87;13.80;;;;;;;6.28;55.72;97998.03;8363238;23;20638;-76
2023/12/02 10:44:31;;;;;;;18.97;12.93;;;;;;;6.12;55.73;97968.91;8362694;23;20173;-78
2023/12/02 10:47:53;;;;;;;17.77;13.27;;;;;;;6.21;55.21;98003.38;8362032;23;20219;-76
2023/12/02 10:51:17;;;;;;;23.13;13.67;;;;;;;6.26;54.49;97989.38;8363282;23;20291;-77
2023/12/02 10:54:41;;;;;;;18.57;13.00;;;;;;;6.24;54.35;98018.19;8363013;23;20237;-75
2023/12/02 10:58:04;;;;;;;20.73;13.70;;;;;;;6.41;54.83;98017.66;8361196;23;20259;-75
2023/12/02 11:01:27;;;;;;;18.27;13.33;;;;;;;6.15;55.74;97993.44;8361344;23;20293;-75
2023/12/02 11:04:54;;;;;;;18.23;13.40;;;;;;;6.19;54.99;98016.09;8362089;23;20185;-77
2023/12/02 11:08:20;;;;;;;14.50;11.30;;;;;;;5.38;55.50;97996.31;8360693;23;20257;-75
2023/12/02 11:11:49;;;;;;;18.10;13.37;;;;;;;6.10;55.66;98036.00;8359720;23;20214;-76
2023/12/02 11:15:12;;;;;;;18.47;13.03;;;;;;;5.31;55.77;98039.00;8358686;23;20258;-74
2023/12/02 11:18:42;;;;;;;21.30;13.20;;;;;;;5.10;56.42;98035.50;8357902;23;20241;-74
2023/12/02 11:22:16;;;;;;;21.33;14.97;;;;;;;5.00;56.76;98041.16;8357659;23;20200;-75
2023/12/02 11:25:50;;;;;;;18.97;14.10;;;;;;;4.69;56.99;98058.44;8361908;23;20260;-75
2023/12/02 11:29:16;;;;;;;20.67;13.73;;;;;;;4.03;59.08;98054.06;8360851;23;20267;-75
2023/12/02 11:32:45;;;;;;;18.27;13.00;;;;;;;3.96;59.03;98060.28;8362272;23;20215;-74
2023/12/02 11:36:13;;;;;;;16.87;11.70;;;;;;;3.69;59.23;98071.53;8361154;23;20259;-76
2023/12/02 11:39:44;;;;;;;17.67;12.80;;;;;;;4.00;59.27;98070.41;8360706;23;20209;-74
2023/12/02 11:43:12;;;;;;;14.10;11.10;;;;;;;3.66;59.33;98083.38;8361168;23;20712;-74
2023/12/02 11:46:56;;;;;;;14.87;12.30;;;;;;;3.84;59.49;98091.88;8358598;23;20761;-77
2023/12/02 11:50:26;;;;;;;16.40;12.63;;;;;;;3.95;59.41;98098.63;8360468;23;20229;-74
2023/12/02 11:53:59;;;;;;;17.07;12.70;;;;;;;3.80;58.53;98111.91;8376892;23;20257;-75
2023/12/02 11:57:28;;;;;;;21.67;15.17;;;;;;;4.11;58.97;98101.97;8363387;23;20253;-77
2023/12/02 12:01:03;;;;;;;20.77;14.37;;;;;;;4.08;59.22;98114.84;8359887;23;20284;-74
2023/12/02 12:05:05;;;;;;;17.40;12.87;;;;;;;4.55;57.54;98112.66;8362737;23;20494;-74
2023/12/02 12:08:32;;;;;;;15.83;12.10;;;;;;;4.27;57.53;98131.16;8433469;23;20265;-74
2023/12/02 12:11:54;;;;;;;18.07;13.13;;;;;;;4.29;56.85;98129.13;8364239;23;20609;-75
2023/12/02 12:15:16;;;;;;;18.77;13.10;;;;;;;4.38;57.45;98128.03;8363624;23;20217;-75
2023/12/02 12:18:39;;;;;;;19.50;13.43;;;;;;;4.40;58.15;98134.00;8362184;23;20653;-75
2023/12/02 12:22:00;;;;;;;16.63;12.73;;;;;;;4.22;58.19;98140.69;8360978;23;20285;-75
2023/12/02 12:25:25;;;;;;;15.93;12.27;;;;;;;4.29;58.30;98139.78;8363561;23;20642;-74
2023/12/02 12:28:49;;;;;;;13.13;11.13;;;;;;;4.42;57.32;98134.66;8362966;23;20240;-75
2023/12/02 12:32:11;;;;;;;15.00;11.00;;;;;;;4.26;57.35;98160.69;8361988;23;20185;-75
2023/12/02 12:35:34;;;;;;;10.47;9.27;;;;;;;3.62;57.61;98163.88;8358857;23;20311;-75
2023/12/02 12:38:56;;;;;;;12.97;9.47;;;;;;;3.70;57.85;98169.13;8358524;23;20210;-77
2023/12/02 12:42:18;;;;;;;13.83;10.57;;;;;;;4.06;57.58;98175.50;8361104;23;20186;-76
2023/12/02 12:45:40;;;;;;;12.10;10.10;;;;;;;3.62;57.72;98162.03;8362291;23;20205;-75
2023/12/02 12:49:05;;;;;;;12.50;9.50;;;;;;;3.57;58.13;98182.22;8363141;23;20221;-75
2023/12/02 12:52:29;;;;;;;11.67;9.67;;;;;;;3.39;59.06;98209.16;8364064;23;20622;-74
2023/12/02 12:55:58;;;;;;;11.30;9.43;;;;;;;3.58;57.99;98207.84;8363303;23;20267;-74
2023/12/02 12:59:19;;;;;;;14.70;11.00;;;;;;;4.25;57.87;98202.53;8362025;23;20639;-74
2023/12/02 13:02:56;;;;;;;12.20;9.90;;;;;;;3.90;57.64;98218.31;8361279;23;20283;-74
2023/12/02 13:06:28;;;;;;;12.67;10.07;;;;;;;4.17;57.04;98228.44;8362749;23;20251;-76
2023/12/02 13:09:52;;;;;;;13.90;10.33;;;;;;;3.88;57.28;98212.31;8362828;23;20566;-76
2023/12/02 13:13:16;;;;;;;12.33;9.10;;;;;;;3.75;57.03;98241.41;8363219;23;20273;-75
2023/12/02 13:16:39;;;;;;;10.47;9.17;;;;;;;3.55;56.86;98246.34;8362764;23;20706;-75
2023/12/02 13:20:01;;;;;;;13.27;10.60;;;;;;;3.67;57.09;98250.28;8359969;23;20303;-75
2023/12/02 13:23:24;;;;;;;10.97;9.77;;;;;;;4.04;56.87;98263.72;8363500;23;20211;-76
2023/12/02 13:26:47;;;;;;;10.37;8.17;;;;;;;3.91;56.97;98265.31;8362332;23;20606;-75
2023/12/02 13:30:10;;;;;;;8.73;7.83;;;;;;;3.38;57.46;98279.44;8361391;23;20296;-77
2023/12/02 13:33:37;;;;;;;12.00;9.37;;;;;;;3.59;58.34;98284.97;8358026;23;20182;-75
2023/12/02 13:37:00;;;;;;;12.90;9.80;;;;;;;3.69;57.52;98295.41;8359814;23;20267;-76
2023/12/02 13:40:24;;;;;;;13.73;11.90;;;;;;;3.45;58.86;98288.38;8356840;23;20657;-75
2023/12/02 13:43:50;;;;;;;14.20;11.43;;;;;;;3.61;57.84;98300.81;8358844;23;20609;-75
2023/12/02 13:47:21;;;;;;;11.63;10.43;;;;;;;3.91;57.62;98315.97;8358344;23;20640;-75
2023/12/02 13:50:46;;;;;;;13.17;10.20;;;;;;;3.48;58.17;98316.53;8361843;23;20320;-74
2023/12/02 13:54:13;;;;;;;9.43;8.53;;;;;;;3.88;57.46;98322.47;8363412;23;20500;-74
2023/12/02 13:57:42;;;;;;;11.63;9.87;;;;;;;3.69;56.90;98330.06;8362358;23;20260;-75
2023/12/02 14:01:06;;;;;;;9.70;8.70;;;;;;;3.40;57.01;98327.19;8360661;23;20722;-74
2023/12/02 14:04:42;;;;;;;14.03;9.30;;;;;;;3.49;57.49;98328.84;8362591;23;20279;-75
2023/12/02 14:08:04;;;;;;;11.63;9.17;;;;;;;3.34;57.24;98317.22;8362229;23;20198;-74
2023/12/02 14:11:37;;;;;;;12.00;9.73;;;;;;;3.51;57.29;98348.97;8363109;23;20214;-74
2023/12/02 14:15:24;;;;;;;10.13;8.43;;;;;;;3.22;57.73;98350.56;8361967;23;20166;-74
2023/12/02 14:19:18;;;;;;;11.20;8.83;;;;;;;3.44;57.66;98371.16;8362222;23;20712;-74
2023/12/02 14:22:57;;;;;;;15.13;10.13;;;;;;;3.72;57.18;98377.72;8385612;23;20804;-78
2023/12/02 14:26:39;;;;;;;10.97;9.73;;;;;;;3.92;56.75;98374.47;8360607;23;20174;-75
2023/12/02 14:30:14;;;;;;;10.97;9.07;;;;;;;3.47;57.45;98405.44;8360785;23;20213;-75
2023/12/02 14:34:00;;;;;;;12.67;10.53;;;;;;;3.00;58.11;98404.50;8360413;23;20610;-78
2023/12/02 14:37:38;;;;;;;12.90;10.87;;;;;;;3.43;57.99;98409.47;8362466;23;20201;-75
2023/12/02 14:41:10;;;;;;;12.57;10.70;;;;;;;3.12;58.50;98424.50;8360163;23;20287;-75
2023/12/02 14:44:32;;;;;;;12.10;10.50;;;;;;;3.56;57.17;98428.41;8361479;23;20280;-75
2023/12/02 14:48:05;;;;;;;13.23;10.90;;;;;;;3.20;57.55;98440.47;8360458;23;20277;-75
2023/12/02 14:51:28;;;;;;;12.07;10.17;;;;;;;3.45;56.90;98442.94;8360723;23;20312;-74
2023/12/02 14:54:51;;;;;;;38.30;25.63;;;;;;;3.65;56.45;98454.88;8361878;23;20174;-75
2023/12/02 14:58:24;;;;;;;12.77;11.10;;;;;;;3.60;56.44;98467.06;8360149;23;21311;-75
2023/12/02 15:01:50;;;;;;;11.97;9.97;;;;;;;3.62;55.54;98475.69;8361627;23;20259;-75
2023/12/02 15:05:12;;;;;;;11.17;9.67;;;;;;;3.23;56.24;98474.75;8362212;23;20508;-75
2023/12/02 15:08:39;;;;;;;11.40;9.90;;;;;;;3.07;56.02;98480.91;8360939;23;20627;-75
2023/12/02 15:12:01;;;;;;;10.90;9.30;;;;;;;3.58;55.29;98491.19;8362890;23;20233;-75
2023/12/02 15:15:41;;;;;;;11.93;9.63;;;;;;;3.18;53.99;98507.22;8362587;23;20185;-75
2023/12/02 15:19:08;;;;;;;13.03;9.60;;;;;;;3.19;54.73;98511.53;8360498;23;20280;-74
2023/12/02 15:22:30;;;;;;;12.10;10.80;;;;;;;3.10;53.83;98514.34;8361264;23;20186;-76
2023/12/02 15:25:52;;;;;;;13.57;11.30;;;;;;;3.11;55.12;98519.53;8361370;23;20217;-75
2023/12/02 15:29:14;;;;;;;12.93;10.93;;;;;;;3.29;53.83;98535.34;8363398;23;20229;-77
2023/12/02 15:32:37;;;;;;;15.87;12.10;;;;;;;3.39;55.14;98509.38;8363979;23;20261;-75
2023/12/02 15:35:59;;;;;;;15.30;13.23;;;;;;;3.71;54.52;98536.00;8363475;23;20243;-75
2023/12/02 15:39:20;;;;;;;14.10;11.57;;;;;;;3.58;54.25;98554.31;8362149;23;20214;-75
2023/12/02 15:42:43;;;;;;;15.77;12.87;;;;;;;3.52;53.97;98549.66;8363461;23;20288;-74
2023/12/02 15:46:05;;;;;;;12.23;10.97;;;;;;;3.34;53.96;98562.31;8363062;23;20181;-75
2023/12/02 15:49:28;;;;;;;11.30;10.10;;;;;;;3.32;53.60;98559.00;8362378;23;20724;-76
2023/12/02 15:52:50;;;;;;;13.07;10.90;;;;;;;3.13;54.12;98581.44;8376548;23;20240;-74